sensor_id;sensor_type;location;lat;lon;timestamp;P1;durP1;ratioP1;P2;durP2;ratioP2
50309;SDS011;36207;51.850;21.698;2023-03-30T00:01:29;26.30;;;13.30;;
50309;SDS011;36207;51.850;21.698;2023-03-30T00:03:55;25.90;;;13.20;;
50309;SDS011;36207;51.850;21.698;2023-03-30T00:06:23;25.60;;;13.60;;
50309;SDS011;36207;51.850;21.698;2023-03-30T00:08:49;27.10;;;13.50;;
50309;SDS011;36207;51.850;21.698;2023-03-30T00:13:49;26.80;;;12.80;;
50309;SDS011;36207;51.850;21.698;2023-03-30T00:16:16;25.80;;;13.50;;
50309;SDS011;36207;51.850;21.698;2023-03-30T00:18:42;24.80;;;13.10;;
50309;SDS011;36207;51.850;21.698;2023-03-30T00:21:11;24.00;;;12.60;;
50309;SDS011;36207;51.850;21.698;2023-03-30T00:23:38;26.60;;;13.00;;
50309;SDS011;36207;51.850;21.698;2023-03-30T00:26:05;26.00;;;14.00;;
50309;SDS011;36207;51.850;21.698;2023-03-30T00:28:32;23.90;;;13.50;;
50309;SDS011;36207;51.850;21.698;2023-03-30T00:30:59;27.80;;;13.20;;
50309;SDS011;36207;51.850;21.698;2023-03-30T00:33:25;28.70;;;13.60;;
50309;SDS011;36207;51.850;21.698;2023-03-30T00:35:52;26.90;;;13.70;;
50309;SDS011;36207;51.850;21.698;2023-03-30T00:38:19;26.60;;;13.80;;
50309;SDS011;36207;51.850;21.698;2023-03-30T00:40:58;27.30;;;14.20;;
50309;SDS011;36207;51.850;21.698;2023-03-30T00:43:29;23.90;;;13.30;;
50309;SDS011;36207;51.850;21.698;2023-03-30T00:45:55;24.60;;;13.30;;
50309;SDS011;36207;51.850;21.698;2023-03-30T00:48:27;24.50;;;13.20;;
50309;SDS011;36207;51.850;21.698;2023-03-30T00:53:29;26.90;;;13.60;;
50309;SDS011;36207;51.850;21.698;2023-03-30T00:55:58;29.00;;;13.80;;
50309;SDS011;36207;51.850;21.698;2023-03-30T00:58:25;28.20;;;14.40;;
50309;SDS011;36207;51.850;21.698;2023-03-30T01:00:52;26.50;;;13.00;;
50309;SDS011;36207;51.850;21.698;2023-03-30T01:06:10;24.00;;;13.60;;
50309;SDS011;36207;51.850;21.698;2023-03-30T01:08:40;26.90;;;13.80;;
50309;SDS011;36207;51.850;21.698;2023-03-30T01:11:08;26.00;;;13.70;;
50309;SDS011;36207;51.850;21.698;2023-03-30T01:13:35;24.50;;;13.70;;
50309;SDS011;36207;51.850;21.698;2023-03-30T01:21:41;25.00;;;12.90;;
50309;SDS011;36207;51.850;21.698;2023-03-30T01:27:00;26.00;;;13.30;;
50309;SDS011;36207;51.850;21.698;2023-03-30T01:35:00;26.50;;;13.10;;
50309;SDS011;36207;51.850;21.698;2023-03-30T01:40:28;22.50;;;13.00;;
50309;SDS011;36207;51.850;21.698;2023-03-30T01:51:11;22.30;;;12.70;;
50309;SDS011;36207;51.850;21.698;2023-03-30T01:56:14;21.60;;;12.50;;
50309;SDS011;36207;51.850;21.698;2023-03-30T01:58:46;22.90;;;12.20;;
50309;SDS011;36207;51.850;21.698;2023-03-30T02:01:16;25.10;;;12.10;;
50309;SDS011;36207;51.850;21.698;2023-03-30T02:03:47;19.60;;;11.80;;
50309;SDS011;36207;51.850;21.698;2023-03-30T02:09:30;23.10;;;12.30;;
50309;SDS011;36207;51.850;21.698;2023-03-30T02:11:58;23.70;;;12.20;;
50309;SDS011;36207;51.850;21.698;2023-03-30T02:14:27;27.10;;;13.00;;
50309;SDS011;36207;51.850;21.698;2023-03-30T02:17:06;27.30;;;12.70;;
50309;SDS011;36207;51.850;21.698;2023-03-30T02:19:44;23.90;;;12.20;;
50309;SDS011;36207;51.850;21.698;2023-03-30T02:22:11;24.10;;;12.30;;
50309;SDS011;36207;51.850;21.698;2023-03-30T02:24:39;22.80;;;12.00;;
50309;SDS011;36207;51.850;21.698;2023-03-30T02:27:08;20.90;;;12.30;;
50309;SDS011;36207;51.850;21.698;2023-03-30T02:29:35;24.40;;;12.20;;
50309;SDS011;36207;51.850;21.698;2023-03-30T02:32:05;20.60;;;11.40;;
50309;SDS011;36207;51.850;21.698;2023-03-30T02:43:05;20.80;;;11.50;;
50309;SDS011;36207;51.850;21.698;2023-03-30T02:58:30;22.20;;;11.40;;
50309;SDS011;36207;51.850;21.698;2023-03-30T03:03:57;21.20;;;11.50;;
50309;SDS011;36207;51.850;21.698;2023-03-30T03:06:25;22.30;;;11.20;;
50309;SDS011;36207;51.850;21.698;2023-03-30T03:08:52;20.40;;;11.40;;
50309;SDS011;36207;51.850;21.698;2023-03-30T03:11:20;20.70;;;11.50;;
50309;SDS011;36207;51.850;21.698;2023-03-30T03:13:46;25.10;;;11.80;;
50309;SDS011;36207;51.850;21.698;2023-03-30T03:16:13;22.00;;;11.50;;
50309;SDS011;36207;51.850;21.698;2023-03-30T03:18:39;20.40;;;11.80;;
50309;SDS011;36207;51.850;21.698;2023-03-30T03:21:06;20.80;;;11.40;;
50309;SDS011;36207;51.850;21.698;2023-03-30T03:23:34;22.60;;;12.00;;
50309;SDS011;36207;51.850;21.698;2023-03-30T03:26:02;23.50;;;11.70;;
50309;SDS011;36207;51.850;21.698;2023-03-30T03:28:28;23.00;;;11.90;;
50309;SDS011;36207;51.850;21.698;2023-03-30T03:30:54;23.40;;;12.00;;
50309;SDS011;36207;51.850;21.698;2023-03-30T03:33:21;23.30;;;11.30;;
50309;SDS011;36207;51.850;21.698;2023-03-30T03:35:47;24.60;;;11.90;;
50309;SDS011;36207;51.850;21.698;2023-03-30T03:38:13;20.80;;;11.60;;
50309;SDS011;36207;51.850;21.698;2023-03-30T03:40:39;22.20;;;11.50;;
50309;SDS011;36207;51.850;21.698;2023-03-30T03:43:05;25.70;;;12.30;;
50309;SDS011;36207;51.850;21.698;2023-03-30T03:45:32;21.90;;;12.30;;
50309;SDS011;36207;51.850;21.698;2023-03-30T03:47:58;22.00;;;11.60;;
50309;SDS011;36207;51.850;21.698;2023-03-30T03:50:24;23.60;;;11.70;;
50309;SDS011;36207;51.850;21.698;2023-03-30T03:52:50;22.60;;;11.80;;
50309;SDS011;36207;51.850;21.698;2023-03-30T03:55:16;25.90;;;12.70;;
50309;SDS011;36207;51.850;21.698;2023-03-30T03:57:42;22.00;;;12.30;;
50309;SDS011;36207;51.850;21.698;2023-03-30T04:00:09;20.50;;;12.40;;
50309;SDS011;36207;51.850;21.698;2023-03-30T04:02:41;22.60;;;12.60;;
50309;SDS011;36207;51.850;21.698;2023-03-30T04:05:08;21.70;;;12.10;;
50309;SDS011;36207;51.850;21.698;2023-03-30T04:07:34;22.60;;;12.30;;
50309;SDS011;36207;51.850;21.698;2023-03-30T04:10:02;23.80;;;11.60;;
50309;SDS011;36207;51.850;21.698;2023-03-30T04:12:29;24.80;;;12.20;;
50309;SDS011;36207;51.850;21.698;2023-03-30T04:14:55;23.50;;;11.70;;
50309;SDS011;36207;51.850;21.698;2023-03-30T04:17:21;21.60;;;11.90;;
50309;SDS011;36207;51.850;21.698;2023-03-30T04:19:48;22.90;;;12.30;;
50309;SDS011;36207;51.850;21.698;2023-03-30T04:22:18;21.10;;;11.60;;
50309;SDS011;36207;51.850;21.698;2023-03-30T04:24:45;23.00;;;12.20;;
50309;SDS011;36207;51.850;21.698;2023-03-30T04:27:11;22.20;;;11.70;;
50309;SDS011;36207;51.850;21.698;2023-03-30T04:30:07;24.60;;;12.50;;
50309;SDS011;36207;51.850;21.698;2023-03-30T04:32:34;22.30;;;12.60;;
50309;SDS011;36207;51.850;21.698;2023-03-30T04:35:03;24.00;;;12.90;;
50309;SDS011;36207;51.850;21.698;2023-03-30T04:37:31;23.90;;;12.70;;
50309;SDS011;36207;51.850;21.698;2023-03-30T04:39:57;23.80;;;12.40;;
50309;SDS011;36207;51.850;21.698;2023-03-30T04:42:28;25.10;;;13.40;;
50309;SDS011;36207;51.850;21.698;2023-03-30T04:44:59;25.60;;;13.20;;
50309;SDS011;36207;51.850;21.698;2023-03-30T04:47:25;24.70;;;13.50;;
50309;SDS011;36207;51.850;21.698;2023-03-30T04:49:52;25.20;;;13.40;;
50309;SDS011;36207;51.850;21.698;2023-03-30T04:52:19;24.40;;;13.20;;
50309;SDS011;36207;51.850;21.698;2023-03-30T04:54:45;27.40;;;13.60;;
50309;SDS011;36207;51.850;21.698;2023-03-30T04:57:11;26.20;;;13.40;;
50309;SDS011;36207;51.850;21.698;2023-03-30T04:59:38;23.80;;;12.40;;
50309;SDS011;36207;51.850;21.698;2023-03-30T05:02:05;23.10;;;13.00;;
50309;SDS011;36207;51.850;21.698;2023-03-30T05:04:31;23.80;;;13.30;;
50309;SDS011;36207;51.850;21.698;2023-03-30T05:06:57;23.90;;;13.50;;
50309;SDS011;36207;51.850;21.698;2023-03-30T05:09:23;25.30;;;13.80;;
50309;SDS011;36207;51.850;21.698;2023-03-30T05:11:49;24.30;;;13.60;;
50309;SDS011;36207;51.850;21.698;2023-03-30T05:14:15;25.70;;;13.80;;
50309;SDS011;36207;51.850;21.698;2023-03-30T05:16:41;23.40;;;13.40;;
50309;SDS011;36207;51.850;21.698;2023-03-30T05:19:07;24.50;;;13.00;;
50309;SDS011;36207;51.850;21.698;2023-03-30T05:21:33;26.00;;;13.90;;
50309;SDS011;36207;51.850;21.698;2023-03-30T05:23:59;25.50;;;13.00;;
50309;SDS011;36207;51.850;21.698;2023-03-30T05:26:25;26.00;;;13.60;;
50309;SDS011;36207;51.850;21.698;2023-03-30T05:28:52;24.20;;;13.80;;
50309;SDS011;36207;51.850;21.698;2023-03-30T05:31:19;27.80;;;13.80;;
50309;SDS011;36207;51.850;21.698;2023-03-30T05:33:46;22.90;;;13.60;;
50309;SDS011;36207;51.850;21.698;2023-03-30T05:36:12;26.00;;;13.60;;
50309;SDS011;36207;51.850;21.698;2023-03-30T05:38:38;26.30;;;13.50;;
50309;SDS011;36207;51.850;21.698;2023-03-30T05:41:05;25.80;;;14.10;;
50309;SDS011;36207;51.850;21.698;2023-03-30T05:43:31;26.70;;;14.30;;
50309;SDS011;36207;51.850;21.698;2023-03-30T05:45:58;27.70;;;13.90;;
50309;SDS011;36207;51.850;21.698;2023-03-30T05:48:24;24.20;;;13.30;;
50309;SDS011;36207;51.850;21.698;2023-03-30T05:50:50;22.90;;;13.10;;
50309;SDS011;36207;51.850;21.698;2023-03-30T05:53:16;23.80;;;14.00;;
50309;SDS011;36207;51.850;21.698;2023-03-30T05:55:44;24.80;;;13.10;;
50309;SDS011;36207;51.850;21.698;2023-03-30T05:58:13;26.10;;;13.80;;
50309;SDS011;36207;51.850;21.698;2023-03-30T06:00:41;25.30;;;13.70;;
50309;SDS011;36207;51.850;21.698;2023-03-30T06:03:09;23.40;;;13.30;;
50309;SDS011;36207;51.850;21.698;2023-03-30T06:05:39;23.30;;;13.90;;
50309;SDS011;36207;51.850;21.698;2023-03-30T06:08:09;23.80;;;13.20;;
50309;SDS011;36207;51.850;21.698;2023-03-30T06:10:36;25.90;;;14.40;;
50309;SDS011;36207;51.850;21.698;2023-03-30T06:13:02;26.10;;;14.20;;
50309;SDS011;36207;51.850;21.698;2023-03-30T06:15:29;27.20;;;14.00;;
50309;SDS011;36207;51.850;21.698;2023-03-30T06:17:55;26.00;;;14.20;;
50309;SDS011;36207;51.850;21.698;2023-03-30T06:20:21;27.20;;;14.70;;
50309;SDS011;36207;51.850;21.698;2023-03-30T06:22:50;25.40;;;14.20;;
50309;SDS011;36207;51.850;21.698;2023-03-30T06:25:17;29.70;;;14.50;;
50309;SDS011;36207;51.850;21.698;2023-03-30T06:27:45;25.30;;;13.70;;
50309;SDS011;36207;51.850;21.698;2023-03-30T06:30:12;25.10;;;14.00;;
50309;SDS011;36207;51.850;21.698;2023-03-30T06:32:39;28.30;;;13.40;;
50309;SDS011;36207;51.850;21.698;2023-03-30T06:35:05;23.00;;;12.80;;
50309;SDS011;36207;51.850;21.698;2023-03-30T06:37:32;27.50;;;14.10;;
50309;SDS011;36207;51.850;21.698;2023-03-30T06:40:01;24.50;;;13.70;;
50309;SDS011;36207;51.850;21.698;2023-03-30T06:42:33;27.10;;;14.00;;
50309;SDS011;36207;51.850;21.698;2023-03-30T06:44:59;27.10;;;14.60;;
50309;SDS011;36207;51.850;21.698;2023-03-30T06:47:25;25.50;;;14.20;;
50309;SDS011;36207;51.850;21.698;2023-03-30T06:49:51;28.30;;;14.60;;
50309;SDS011;36207;51.850;21.698;2023-03-30T06:52:17;26.00;;;13.60;;
50309;SDS011;36207;51.850;21.698;2023-03-30T06:54:43;27.60;;;14.40;;
50309;SDS011;36207;51.850;21.698;2023-03-30T06:57:09;27.70;;;14.40;;
50309;SDS011;36207;51.850;21.698;2023-03-30T06:59:35;26.30;;;13.90;;
50309;SDS011;36207;51.850;21.698;2023-03-30T07:02:00;24.00;;;13.80;;
50309;SDS011;36207;51.850;21.698;2023-03-30T07:04:28;25.20;;;14.00;;
50309;SDS011;36207;51.850;21.698;2023-03-30T07:06:54;27.10;;;14.70;;
50309;SDS011;36207;51.850;21.698;2023-03-30T07:09:24;24.80;;;13.20;;
50309;SDS011;36207;51.850;21.698;2023-03-30T07:11:50;25.70;;;13.90;;
50309;SDS011;36207;51.850;21.698;2023-03-30T07:14:16;26.60;;;13.50;;
50309;SDS011;36207;51.850;21.698;2023-03-30T07:16:43;22.50;;;13.30;;
50309;SDS011;36207;51.850;21.698;2023-03-30T07:19:09;25.40;;;13.50;;
50309;SDS011;36207;51.850;21.698;2023-03-30T07:21:35;23.00;;;13.50;;
50309;SDS011;36207;51.850;21.698;2023-03-30T07:24:01;25.10;;;13.90;;
50309;SDS011;36207;51.850;21.698;2023-03-30T07:26:28;26.30;;;13.90;;
50309;SDS011;36207;51.850;21.698;2023-03-30T07:28:54;22.90;;;13.70;;
50309;SDS011;36207;51.850;21.698;2023-03-30T07:31:21;26.20;;;13.80;;
50309;SDS011;36207;51.850;21.698;2023-03-30T07:33:48;24.50;;;13.40;;
50309;SDS011;36207;51.850;21.698;2023-03-30T07:36:15;24.50;;;14.10;;
50309;SDS011;36207;51.850;21.698;2023-03-30T07:38:41;23.90;;;13.70;;
50309;SDS011;36207;51.850;21.698;2023-03-30T07:41:08;22.90;;;13.80;;
50309;SDS011;36207;51.850;21.698;2023-03-30T07:43:35;27.40;;;14.60;;
50309;SDS011;36207;51.850;21.698;2023-03-30T07:46:01;23.60;;;13.70;;
50309;SDS011;36207;51.850;21.698;2023-03-30T07:48:28;22.60;;;13.70;;
50309;SDS011;36207;51.850;21.698;2023-03-30T07:51:07;22.60;;;13.40;;
50309;SDS011;36207;51.850;21.698;2023-03-30T07:53:36;23.40;;;13.40;;
50309;SDS011;36207;51.850;21.698;2023-03-30T07:56:03;24.00;;;13.10;;
50309;SDS011;36207;51.850;21.698;2023-03-30T07:58:30;25.00;;;13.70;;
50309;SDS011;36207;51.850;21.698;2023-03-30T08:00:56;22.50;;;13.30;;
50309;SDS011;36207;51.850;21.698;2023-03-30T08:03:22;21.40;;;12.50;;
50309;SDS011;36207;51.850;21.698;2023-03-30T08:05:55;24.00;;;13.70;;
50309;SDS011;36207;51.850;21.698;2023-03-30T08:08:25;23.10;;;13.00;;
50309;SDS011;36207;51.850;21.698;2023-03-30T08:10:52;22.30;;;12.70;;
50309;SDS011;36207;51.850;21.698;2023-03-30T08:13:18;24.70;;;13.30;;
50309;SDS011;36207;51.850;21.698;2023-03-30T08:15:45;22.80;;;12.60;;
50309;SDS011;36207;51.850;21.698;2023-03-30T08:18:11;22.30;;;13.00;;
50309;SDS011;36207;51.850;21.698;2023-03-30T08:20:39;25.20;;;13.60;;
50309;SDS011;36207;51.850;21.698;2023-03-30T08:23:07;21.40;;;12.70;;
50309;SDS011;36207;51.850;21.698;2023-03-30T08:25:36;23.90;;;12.60;;
50309;SDS011;36207;51.850;21.698;2023-03-30T08:28:03;23.50;;;12.40;;
50309;SDS011;36207;51.850;21.698;2023-03-30T08:30:30;24.20;;;13.40;;
50309;SDS011;36207;51.850;21.698;2023-03-30T08:32:57;23.50;;;12.40;;
50309;SDS011;36207;51.850;21.698;2023-03-30T08:35:23;21.10;;;12.40;;
50309;SDS011;36207;51.850;21.698;2023-03-30T08:37:49;22.80;;;13.10;;
50309;SDS011;36207;51.850;21.698;2023-03-30T08:40:15;21.30;;;12.00;;
50309;SDS011;36207;51.850;21.698;2023-03-30T08:45:41;22.80;;;12.10;;
50309;SDS011;36207;51.850;21.698;2023-03-30T08:48:18;20.60;;;12.10;;
50309;SDS011;36207;51.850;21.698;2023-03-30T08:50:57;20.00;;;12.40;;
50309;SDS011;36207;51.850;21.698;2023-03-30T08:53:26;23.20;;;13.00;;
50309;SDS011;36207;51.850;21.698;2023-03-30T08:55:58;22.70;;;12.30;;
50309;SDS011;36207;51.850;21.698;2023-03-30T09:01:35;22.00;;;12.80;;
50309;SDS011;36207;51.850;21.698;2023-03-30T09:04:10;22.90;;;11.90;;
50309;SDS011;36207;51.850;21.698;2023-03-30T09:07:03;21.80;;;12.80;;
50309;SDS011;36207;51.850;21.698;2023-03-30T09:09:40;22.00;;;12.00;;
50309;SDS011;36207;51.850;21.698;2023-03-30T09:15:13;22.10;;;12.20;;
50309;SDS011;36207;51.850;21.698;2023-03-30T09:17:41;19.70;;;12.50;;
50309;SDS011;36207;51.850;21.698;2023-03-30T09:22:45;23.60;;;13.10;;
50309;SDS011;36207;51.850;21.698;2023-03-30T09:30:49;22.50;;;12.60;;
50309;SDS011;36207;51.850;21.698;2023-03-30T09:33:30;21.80;;;12.60;;
50309;SDS011;36207;51.850;21.698;2023-03-30T09:36:16;22.20;;;12.30;;
50309;SDS011;36207;51.850;21.698;2023-03-30T09:39:21;22.00;;;12.70;;
50309;SDS011;36207;51.850;21.698;2023-03-30T09:44:35;22.20;;;12.20;;
50309;SDS011;36207;51.850;21.698;2023-03-30T09:47:40;20.90;;;11.80;;
50309;SDS011;36207;51.850;21.698;2023-03-30T09:50:11;22.50;;;12.60;;
50309;SDS011;36207;51.850;21.698;2023-03-30T09:55:25;23.70;;;13.10;;
50309;SDS011;36207;51.850;21.698;2023-03-30T09:58:12;22.90;;;12.60;;
50309;SDS011;36207;51.850;21.698;2023-03-30T10:00:41;23.40;;;14.70;;
50309;SDS011;36207;51.850;21.698;2023-03-30T10:03:12;22.50;;;13.80;;
50309;SDS011;36207;51.850;21.698;2023-03-30T10:05:48;23.30;;;13.00;;
50309;SDS011;36207;51.850;21.698;2023-03-30T10:08:32;21.40;;;13.00;;
50309;SDS011;36207;51.850;21.698;2023-03-30T10:11:20;21.60;;;12.40;;
50309;SDS011;36207;51.850;21.698;2023-03-30T10:13:56;20.00;;;12.90;;
50309;SDS011;36207;51.850;21.698;2023-03-30T10:16:26;20.30;;;11.70;;
50309;SDS011;36207;51.850;21.698;2023-03-30T10:18:58;19.40;;;11.90;;
50309;SDS011;36207;51.850;21.698;2023-03-30T10:21:31;19.50;;;11.70;;
50309;SDS011;36207;51.850;21.698;2023-03-30T10:24:23;20.50;;;11.90;;
50309;SDS011;36207;51.850;21.698;2023-03-30T10:26:51;18.70;;;11.70;;
50309;SDS011;36207;51.850;21.698;2023-03-30T10:29:21;22.60;;;11.70;;
50309;SDS011;36207;51.850;21.698;2023-03-30T10:31:58;19.90;;;11.60;;
50309;SDS011;36207;51.850;21.698;2023-03-30T10:37:08;21.30;;;11.40;;
50309;SDS011;36207;51.850;21.698;2023-03-30T10:39:41;20.80;;;11.60;;
50309;SDS011;36207;51.850;21.698;2023-03-30T10:42:10;19.00;;;11.60;;
50309;SDS011;36207;51.850;21.698;2023-03-30T10:44:54;18.60;;;11.20;;
50309;SDS011;36207;51.850;21.698;2023-03-30T10:50:23;19.40;;;11.60;;
50309;SDS011;36207;51.850;21.698;2023-03-30T10:55:49;18.80;;;11.00;;
50309;SDS011;36207;51.850;21.698;2023-03-30T11:01:54;20.10;;;11.30;;
50309;SDS011;36207;51.850;21.698;2023-03-30T11:04:26;19.00;;;10.90;;
50309;SDS011;36207;51.850;21.698;2023-03-30T11:07:12;19.10;;;10.20;;
50309;SDS011;36207;51.850;21.698;2023-03-30T11:09:51;19.80;;;11.20;;
50309;SDS011;36207;51.850;21.698;2023-03-30T11:12:25;19.10;;;10.20;;
50309;SDS011;36207;51.850;21.698;2023-03-30T11:15:03;17.80;;;10.60;;
50309;SDS011;36207;51.850;21.698;2023-03-30T11:17:39;18.00;;;10.00;;
50309;SDS011;36207;51.850;21.698;2023-03-30T11:20:17;16.90;;;10.50;;
50309;SDS011;36207;51.850;21.698;2023-03-30T11:31:03;15.30;;;9.70;;
50309;SDS011;36207;51.850;21.698;2023-03-30T11:33:41;16.00;;;10.20;;
50309;SDS011;36207;51.850;21.698;2023-03-30T11:36:22;19.50;;;10.00;;
50309;SDS011;36207;51.850;21.698;2023-03-30T11:39:13;16.00;;;9.90;;
50309;SDS011;36207;51.850;21.698;2023-03-30T11:41:47;16.40;;;9.60;;
50309;SDS011;36207;51.850;21.698;2023-03-30T11:44:35;17.30;;;10.20;;
50309;SDS011;36207;51.850;21.698;2023-03-30T11:47:12;16.40;;;10.10;;
50309;SDS011;36207;51.850;21.698;2023-03-30T11:52:43;16.90;;;9.00;;
50309;SDS011;36207;51.850;21.698;2023-03-30T12:01:23;16.40;;;9.50;;
50309;SDS011;36207;51.850;21.698;2023-03-30T12:03:52;14.50;;;8.90;;
50309;SDS011;36207;51.850;21.698;2023-03-30T12:06:29;15.70;;;9.30;;
50309;SDS011;36207;51.850;21.698;2023-03-30T12:11:38;18.90;;;9.50;;
50309;SDS011;36207;51.850;21.698;2023-03-30T12:14:24;14.20;;;9.40;;
50309;SDS011;36207;51.850;21.698;2023-03-30T12:16:54;14.10;;;8.80;;
50309;SDS011;36207;51.850;21.698;2023-03-30T12:22:05;13.10;;;9.00;;
50309;SDS011;36207;51.850;21.698;2023-03-30T12:27:18;17.30;;;9.20;;
50309;SDS011;36207;51.850;21.698;2023-03-30T12:34:46;15.40;;;8.90;;
50309;SDS011;36207;51.850;21.698;2023-03-30T12:37:22;15.00;;;9.10;;
50309;SDS011;36207;51.850;21.698;2023-03-30T12:47:26;16.50;;;8.60;;
50309;SDS011;36207;51.850;21.698;2023-03-30T12:50:26;16.50;;;9.00;;
50309;SDS011;36207;51.850;21.698;2023-03-30T12:53:22;16.30;;;8.70;;
50309;SDS011;36207;51.850;21.698;2023-03-30T13:04:14;13.30;;;8.50;;
50309;SDS011;36207;51.850;21.698;2023-03-30T13:06:51;19.10;;;8.70;;
50309;SDS011;36207;51.850;21.698;2023-03-30T13:14:25;15.10;;;8.60;;
50309;SDS011;36207;51.850;21.698;2023-03-30T13:21:54;12.80;;;8.30;;
50309;SDS011;36207;51.850;21.698;2023-03-30T13:29:38;12.60;;;8.40;;
50309;SDS011;36207;51.850;21.698;2023-03-30T13:32:18;15.50;;;8.60;;
50309;SDS011;36207;51.850;21.698;2023-03-30T13:35:00;12.60;;;8.30;;
50309;SDS011;36207;51.850;21.698;2023-03-30T13:40:25;13.30;;;7.90;;
50309;SDS011;36207;51.850;21.698;2023-03-30T13:43:02;12.40;;;8.20;;
50309;SDS011;36207;51.850;21.698;2023-03-30T13:50:58;14.50;;;8.60;;
50309;SDS011;36207;51.850;21.698;2023-03-30T13:53:27;15.70;;;8.90;;
50309;SDS011;36207;51.850;21.698;2023-03-30T13:55:58;15.40;;;8.90;;
50309;SDS011;36207;51.850;21.698;2023-03-30T13:58:26;14.70;;;8.90;;
50309;SDS011;36207;51.850;21.698;2023-03-30T14:06:07;15.40;;;8.40;;
50309;SDS011;36207;51.850;21.698;2023-03-30T14:08:40;13.30;;;7.70;;
50309;SDS011;36207;51.850;21.698;2023-03-30T14:11:13;11.30;;;7.80;;
50309;SDS011;36207;51.850;21.698;2023-03-30T14:13:42;14.30;;;8.10;;
50309;SDS011;36207;51.850;21.698;2023-03-30T14:16:11;13.30;;;8.50;;
50309;SDS011;36207;51.850;21.698;2023-03-30T14:18:43;13.60;;;7.90;;
50309;SDS011;36207;51.850;21.698;2023-03-30T14:21:10;13.10;;;7.60;;
50309;SDS011;36207;51.850;21.698;2023-03-30T14:26:17;10.80;;;5.90;;
50309;SDS011;36207;51.850;21.698;2023-03-30T14:28:46;11.60;;;6.90;;
50309;SDS011;36207;51.850;21.698;2023-03-30T14:31:18;11.60;;;6.50;;
50309;SDS011;36207;51.850;21.698;2023-03-30T14:33:45;11.70;;;5.90;;
50309;SDS011;36207;51.850;21.698;2023-03-30T14:36:20;10.70;;;6.20;;
50309;SDS011;36207;51.850;21.698;2023-03-30T14:38:47;11.00;;;6.30;;
50309;SDS011;36207;51.850;21.698;2023-03-30T14:41:19;12.70;;;6.20;;
50309;SDS011;36207;51.850;21.698;2023-03-30T14:44:09;11.40;;;6.10;;
50309;SDS011;36207;51.850;21.698;2023-03-30T14:46:41;8.20;;;5.60;;
50309;SDS011;36207;51.850;21.698;2023-03-30T14:52:21;16.50;;;7.90;;
50309;SDS011;36207;51.850;21.698;2023-03-30T14:54:51;13.00;;;6.80;;
50309;SDS011;36207;51.850;21.698;2023-03-30T14:57:19;13.00;;;6.80;;
50309;SDS011;36207;51.850;21.698;2023-03-30T14:59:49;11.80;;;6.70;;
50309;SDS011;36207;51.850;21.698;2023-03-30T15:02:19;12.80;;;7.50;;
50309;SDS011;36207;51.850;21.698;2023-03-30T15:04:50;10.60;;;6.60;;
50309;SDS011;36207;51.850;21.698;2023-03-30T15:07:18;14.60;;;8.00;;
50309;SDS011;36207;51.850;21.698;2023-03-30T15:09:52;13.30;;;7.10;;
50309;SDS011;36207;51.850;21.698;2023-03-30T15:12:23;13.90;;;7.60;;
50309;SDS011;36207;51.850;21.698;2023-03-30T15:14:55;13.20;;;7.60;;
50309;SDS011;36207;51.850;21.698;2023-03-30T15:17:25;11.20;;;8.20;;
50309;SDS011;36207;51.850;21.698;2023-03-30T15:19:53;11.80;;;7.90;;
50309;SDS011;36207;51.850;21.698;2023-03-30T15:22:28;12.40;;;7.80;;
50309;SDS011;36207;51.850;21.698;2023-03-30T15:24:59;15.20;;;7.80;;
50309;SDS011;36207;51.850;21.698;2023-03-30T15:27:28;12.00;;;7.50;;
50309;SDS011;36207;51.850;21.698;2023-03-30T15:30:00;14.90;;;7.70;;
50309;SDS011;36207;51.850;21.698;2023-03-30T15:32:33;14.60;;;8.30;;
50309;SDS011;36207;51.850;21.698;2023-03-30T15:37:28;12.70;;;7.80;;
50309;SDS011;36207;51.850;21.698;2023-03-30T15:39:56;13.60;;;7.60;;
50309;SDS011;36207;51.850;21.698;2023-03-30T15:42:23;16.50;;;8.60;;
50309;SDS011;36207;51.850;21.698;2023-03-30T15:45:01;15.70;;;8.80;;
50309;SDS011;36207;51.850;21.698;2023-03-30T15:47:29;14.30;;;9.20;;
50309;SDS011;36207;51.850;21.698;2023-03-30T15:49:55;16.40;;;9.60;;
50309;SDS011;36207;51.850;21.698;2023-03-30T15:52:32;17.20;;;8.70;;
50309;SDS011;36207;51.850;21.698;2023-03-30T15:55:32;15.50;;;8.70;;
50309;SDS011;36207;51.850;21.698;2023-03-30T15:57:52;16.70;;;9.30;;
50309;SDS011;36207;51.850;21.698;2023-03-30T16:00:19;14.00;;;8.60;;
50309;SDS011;36207;51.850;21.698;2023-03-30T16:02:49;16.60;;;9.90;;
50309;SDS011;36207;51.850;21.698;2023-03-30T16:05:26;16.60;;;9.40;;
50309;SDS011;36207;51.850;21.698;2023-03-30T16:07:55;17.70;;;10.10;;
50309;SDS011;36207;51.850;21.698;2023-03-30T16:10:22;16.20;;;10.60;;
50309;SDS011;36207;51.850;21.698;2023-03-30T16:12:51;15.20;;;9.80;;
50309;SDS011;36207;51.850;21.698;2023-03-30T16:15:20;16.80;;;10.10;;
50309;SDS011;36207;51.850;21.698;2023-03-30T16:17:48;18.50;;;10.40;;
50309;SDS011;36207;51.850;21.698;2023-03-30T16:20:15;17.60;;;10.60;;
50309;SDS011;36207;51.850;21.698;2023-03-30T16:22:43;15.50;;;9.90;;
50309;SDS011;36207;51.850;21.698;2023-03-30T16:25:12;16.40;;;9.80;;
50309;SDS011;36207;51.850;21.698;2023-03-30T16:27:39;16.40;;;9.70;;
50309;SDS011;36207;51.850;21.698;2023-03-30T16:30:10;16.70;;;9.40;;
50309;SDS011;36207;51.850;21.698;2023-03-30T16:32:41;17.90;;;9.80;;
50309;SDS011;36207;51.850;21.698;2023-03-30T16:35:07;18.30;;;9.20;;
50309;SDS011;36207;51.850;21.698;2023-03-30T16:37:33;16.10;;;9.30;;
50309;SDS011;36207;51.850;21.698;2023-03-30T16:40:00;22.40;;;12.00;;
50309;SDS011;36207;51.850;21.698;2023-03-30T16:42:26;16.20;;;10.20;;
50309;SDS011;36207;51.850;21.698;2023-03-30T16:44:52;18.50;;;10.60;;
50309;SDS011;36207;51.850;21.698;2023-03-30T16:47:18;24.90;;;11.10;;
50309;SDS011;36207;51.850;21.698;2023-03-30T16:49:45;16.80;;;10.40;;
50309;SDS011;36207;51.850;21.698;2023-03-30T16:52:11;16.70;;;10.20;;
50309;SDS011;36207;51.850;21.698;2023-03-30T16:54:38;17.50;;;10.70;;
50309;SDS011;36207;51.850;21.698;2023-03-30T16:57:04;19.20;;;10.70;;
50309;SDS011;36207;51.850;21.698;2023-03-30T16:59:30;18.40;;;10.50;;
50309;SDS011;36207;51.850;21.698;2023-03-30T17:01:57;16.80;;;10.70;;
50309;SDS011;36207;51.850;21.698;2023-03-30T17:04:24;15.90;;;10.50;;
50309;SDS011;36207;51.850;21.698;2023-03-30T17:06:51;19.70;;;10.80;;
50309;SDS011;36207;51.850;21.698;2023-03-30T17:09:21;19.20;;;10.70;;
50309;SDS011;36207;51.850;21.698;2023-03-30T17:11:48;16.70;;;9.90;;
50309;SDS011;36207;51.850;21.698;2023-03-30T17:14:15;16.80;;;10.30;;
50309;SDS011;36207;51.850;21.698;2023-03-30T17:16:41;18.80;;;11.20;;
50309;SDS011;36207;51.850;21.698;2023-03-30T17:19:10;18.70;;;10.30;;
50309;SDS011;36207;51.850;21.698;2023-03-30T17:21:38;18.00;;;10.50;;
50309;SDS011;36207;51.850;21.698;2023-03-30T17:24:07;16.00;;;10.50;;
50309;SDS011;36207;51.850;21.698;2023-03-30T17:26:34;17.50;;;10.10;;
50309;SDS011;36207;51.850;21.698;2023-03-30T17:29:00;16.40;;;9.80;;